Terminal Aerodrome Forecast
Issued by NWS

Current Version | Previous Version | Graphics & Text | Print | Product List | Glossary On
Versions: 1 2 3 4 5 6 7 8 9 10 11 12 13 14 15 16 17 18 19 20 21 22 23 24 25 26 27 28 29
000
FTUS41 KPBZ 260500
TAFHLG
TAF
KHLG 260520Z 2606/2706 25008KT P6SM BKN250
     FM260900 24006KT P6SM BKN035
     FM261300 VRB04KT 3SM -SHRA BR OVC012
     FM261600 32008KT 2SM -SHRA OVC008
     FM270200 33008KT P6SM BKN015=

USA.gov is the U.S. government's official web portal to all federal, state and local government web resources and services.